Terminal Aerodrome Forecast
Issued by NWS Jackson, KY

Home | Current Version | Previous Version | Text Only | Print | Product List | Glossary On
Versions: 1 2 3 4 5 6 7 8 9 10 11 12 13 14 15 16 17 18 19 20 21 22
000
FTUS43 KJKL 270800 AAA
TAFJKL
TAF AMD
KJKL 270855Z 2709/2806 00000KT P6SM OVC070
     FM271000 33006KT 3SM -RASN BR BKN015 OVC025
     FM271200 31005KT P6SM VCSH BKN015
     FM271700 29007KT P6SM BKN035=

USA.gov is the U.S. government's official web portal to all federal, state and local government web resources and services.